Time;durP1;ratioP1;P1;durP2;ratioP2;P2;SDS_P1;SDS_P2;PMS_P1;PMS_P2;Temp;Humidity;BMP_temperature;BMP_pressure;BME280_temperature;BME280_humidity;BME280_pressure;Samples;Min_cycle;Max_cycle;Signal;HPM_P1;HPM_P2
2021/06/26 00:01:48;;;;;;;7.27;6.57;;;;;;;14.24;100.00;101196.09;5015785;28;20250;-75
2021/06/26 00:04:14;;;;;;;7.53;6.90;;;;;;;14.17;100.00;101191.25;4997451;28;20595;-76
2021/06/26 00:06:39;;;;;;;7.50;6.83;;;;;;;14.19;100.00;101198.03;4996701;28;20218;-74
2021/06/26 00:09:08;;;;;;;6.97;6.37;;;;;;;14.23;100.00;101190.09;5014025;28;20184;-74
2021/06/26 00:11:36;;;;;;;6.67;6.17;;;;;;;14.12;100.00;101188.53;4989953;28;20289;-74
2021/06/26 00:14:04;;;;;;;7.50;6.73;;;;;;;14.08;100.00;101187.47;5017262;28;20208;-74
2021/06/26 00:16:30;;;;;;;7.33;6.63;;;;;;;14.13;100.00;101193.72;5013084;28;20233;-75
2021/06/26 00:18:58;;;;;;;7.07;6.43;;;;;;;13.99;100.00;101191.84;5031155;28;20579;-74
2021/06/26 00:21:23;;;;;;;7.03;6.43;;;;;;;13.99;100.00;101200.03;5028478;28;20282;-74
2021/06/26 00:23:51;;;;;;;7.47;6.77;;;;;;;13.99;100.00;101186.38;4994283;28;20718;-75
2021/06/26 00:26:20;;;;;;;7.77;6.97;;;;;;;13.91;100.00;101186.97;4993448;28;20721;-75
2021/06/26 00:28:48;;;;;;;7.00;6.37;;;;;;;13.68;100.00;101192.28;4993646;28;20185;-75
2021/06/26 00:31:15;;;;;;;7.60;6.73;;;;;;;13.86;100.00;101189.72;5009856;28;20233;-74
2021/06/26 00:33:41;;;;;;;7.37;6.77;;;;;;;14.05;100.00;101193.50;5028505;28;20188;-74
2021/06/26 00:36:10;;;;;;;7.30;6.70;;;;;;;14.07;100.00;101185.84;4996283;28;20590;-74
2021/06/26 00:38:41;;;;;;;7.47;6.60;;;;;;;13.74;100.00;101194.72;5027963;28;20230;-74
2021/06/26 00:41:09;;;;;;;7.37;6.77;;;;;;;13.73;100.00;101184.88;5022871;28;20246;-74
2021/06/26 00:43:39;;;;;;;7.20;6.67;;;;;;;13.93;100.00;101185.59;5019493;28;20282;-75
2021/06/26 00:46:05;;;;;;;7.10;6.50;;;;;;;14.04;100.00;101198.13;4996511;28;20224;-75
2021/06/26 00:48:35;;;;;;;6.90;6.30;;;;;;;13.93;100.00;101195.72;4996268;28;20242;-75
2021/06/26 00:51:00;;;;;;;7.20;6.50;;;;;;;13.76;100.00;101195.25;5011889;28;20969;-75
2021/06/26 00:53:26;;;;;;;7.97;7.27;;;;;;;13.60;100.00;101204.59;5012254;28;20187;-76
2021/06/26 00:55:52;;;;;;;8.43;7.63;;;;;;;13.53;100.00;101204.09;5012278;28;20728;-77
2021/06/26 00:58:20;;;;;;;8.17;7.47;;;;;;;13.23;100.00;101205.25;4985749;28;20173;-77
2021/06/26 01:00:46;;;;;;;7.50;6.83;;;;;;;13.28;100.00;101211.53;4991554;28;20224;-77
2021/06/26 01:03:16;;;;;;;7.80;7.10;;;;;;;13.20;100.00;101198.41;5018284;28;20251;-74
2021/06/26 01:05:47;;;;;;;7.70;7.03;;;;;;;12.98;100.00;101205.28;4992823;28;20237;-75
2021/06/26 01:08:14;;;;;;;8.57;7.70;;;;;;;12.71;100.00;101196.56;5019762;28;20235;-75
2021/06/26 01:10:42;;;;;;;8.53;7.70;;;;;;;12.56;100.00;101201.16;4995325;28;20369;-76
2021/06/26 01:13:13;;;;;;;8.80;8.10;;;;;;;12.77;100.00;101200.91;5012755;28;20283;-74
2021/06/26 01:15:40;;;;;;;9.67;7.80;;;;;;;12.90;100.00;101199.56;4996373;28;20702;-76
2021/06/26 01:18:06;;;;;;;8.13;7.43;;;;;;;12.90;100.00;101197.66;5004931;28;20212;-75
2021/06/26 01:20:34;;;;;;;8.60;7.80;;;;;;;12.86;100.00;101201.22;5024624;28;20225;-74
2021/06/26 01:23:00;;;;;;;8.40;7.70;;;;;;;13.00;100.00;101189.47;4993717;28;20212;-74
2021/06/26 01:25:32;;;;;;;8.30;7.50;;;;;;;13.10;100.00;101197.66;5025391;28;21411;-74
2021/06/26 01:28:00;;;;;;;7.77;7.17;;;;;;;12.99;100.00;101190.56;5028662;28;20172;-74
2021/06/26 01:30:33;;;;;;;8.47;7.70;;;;;;;13.02;100.00;101200.09;4988263;28;20235;-74
2021/06/26 01:32:59;;;;;;;7.90;7.10;;;;;;;12.87;100.00;101192.75;4997548;28;20192;-74
2021/06/26 01:35:25;;;;;;;7.93;7.23;;;;;;;12.79;100.00;101204.22;5011812;28;20219;-76
2021/06/26 01:37:53;;;;;;;7.77;7.10;;;;;;;12.86;100.00;101207.50;5012235;28;20188;-74
2021/06/26 01:40:22;;;;;;;10.20;8.17;;;;;;;12.79;100.00;101203.38;5027073;28;20180;-75
2021/06/26 01:42:48;;;;;;;8.33;7.63;;;;;;;12.71;100.00;101195.75;4987154;28;20193;-75
2021/06/26 01:45:14;;;;;;;8.00;7.30;;;;;;;12.83;100.00;101201.75;4995069;28;20223;-74
2021/06/26 01:47:49;;;;;;;8.83;7.50;;;;;;;12.88;100.00;101196.31;4995219;28;20180;-75
2021/06/26 01:50:18;;;;;;;8.20;7.50;;;;;;;12.82;100.00;101202.84;5012606;28;20204;-75
2021/06/26 01:52:48;;;;;;;8.27;7.57;;;;;;;12.86;100.00;101198.50;4997487;28;20219;-76
2021/06/26 01:55:19;;;;;;;8.00;7.20;;;;;;;12.92;100.00;101190.03;5015558;28;20199;-75
2021/06/26 01:57:47;;;;;;;8.00;7.13;;;;;;;12.55;100.00;101183.19;5016904;28;20199;-74
2021/06/26 02:00:16;;;;;;;7.40;6.70;;;;;;;12.39;100.00;101197.06;4998129;28;20212;-75
2021/06/26 02:02:44;;;;;;;7.73;7.13;;;;;;;12.32;100.00;101196.50;4999705;28;20622;-76
2021/06/26 02:05:17;;;;;;;7.80;7.20;;;;;;;12.57;100.00;101180.22;5015500;28;20287;-75
2021/06/26 02:07:45;;;;;;;8.00;7.30;;;;;;;12.77;100.00;101184.56;5015664;28;20261;-75
2021/06/26 02:10:16;;;;;;;7.67;6.97;;;;;;;12.73;100.00;101188.91;4995988;28;20212;-76
2021/06/26 02:12:42;;;;;;;7.97;7.20;;;;;;;12.71;100.00;101191.09;5007033;28;20196;-75
2021/06/26 02:15:13;;;;;;;8.00;7.33;;;;;;;12.86;100.00;101196.56;4992661;28;20293;-75
2021/06/26 02:17:38;;;;;;;7.83;7.23;;;;;;;12.61;100.00;101184.00;4996727;28;20251;-75
2021/06/26 02:20:09;;;;;;;7.10;6.50;;;;;;;12.66;100.00;101186.75;5022363;28;20254;-75
2021/06/26 02:22:35;;;;;;;7.70;7.03;;;;;;;12.69;100.00;101193.28;5033071;28;20199;-74
2021/06/26 02:25:05;;;;;;;8.80;7.53;;;;;;;12.78;100.00;101183.47;5031632;28;20212;-75
2021/06/26 02:27:34;;;;;;;7.80;7.10;;;;;;;12.61;100.00;101189.47;4999817;28;20224;-74
2021/06/26 02:29:59;;;;;;;8.40;7.07;;;;;;;12.68;100.00;101186.19;5000943;28;20300;-75
2021/06/26 02:32:25;;;;;;;7.87;7.17;;;;;;;12.78;100.00;101191.66;5011582;28;20225;-76
2021/06/26 02:34:53;;;;;;;7.43;6.83;;;;;;;12.76;100.00;101193.00;4974948;28;20206;-75
2021/06/26 02:37:19;;;;;;;7.20;6.60;;;;;;;12.74;100.00;101185.09;4999364;28;20219;-75
2021/06/26 02:39:47;;;;;;;8.07;7.37;;;;;;;12.75;100.00;101189.47;4998848;28;20195;-75
2021/06/26 02:42:15;;;;;;;7.40;6.80;;;;;;;12.71;100.00;101184.84;4981127;28;20230;-74
2021/06/26 02:44:40;;;;;;;7.70;7.10;;;;;;;12.59;100.00;101192.47;5006535;28;20204;-75
2021/06/26 02:47:06;;;;;;;7.47;6.87;;;;;;;12.54;100.00;101183.47;5014811;28;20625;-75
2021/06/26 02:49:31;;;;;;;7.60;7.00;;;;;;;12.40;100.00;101182.38;5011850;28;20203;-76
2021/06/26 02:51:57;;;;;;;7.10;6.50;;;;;;;12.36;100.00;101192.16;5010463;28;20237;-75
2021/06/26 02:54:25;;;;;;;7.37;6.77;;;;;;;12.30;100.00;101187.78;5015145;28;20262;-74
2021/06/26 02:56:53;;;;;;;7.40;6.70;;;;;;;12.49;100.00;101180.72;5014273;28;20243;-76
2021/06/26 02:59:21;;;;;;;7.47;6.47;;;;;;;12.48;100.00;101182.63;5014596;28;20185;-75
2021/06/26 03:01:46;;;;;;;7.20;6.60;;;;;;;12.60;100.00;101187.81;4996329;28;20262;-74
2021/06/26 03:04:12;;;;;;;7.10;6.60;;;;;;;12.41;100.00;101194.91;5012204;28;20235;-77
2021/06/26 03:06:41;;;;;;;7.87;7.17;;;;;;;12.34;100.00;101195.19;5011533;28;20241;-73
2021/06/26 03:09:09;;;;;;;8.43;7.33;;;;;;;12.41;100.00;101200.34;4981620;28;20189;-75
2021/06/26 03:11:39;;;;;;;8.13;7.33;;;;;;;12.37;100.00;101191.91;4997359;28;20228;-76
2021/06/26 03:14:04;;;;;;;7.23;6.63;;;;;;;12.26;100.00;101199.50;4999842;28;20277;-75
2021/06/26 03:16:30;;;;;;;7.80;7.10;;;;;;;12.27;100.00;101204.69;5020788;28;20224;-75
2021/06/26 03:18:55;;;;;;;7.60;6.97;;;;;;;12.17;100.00;101204.66;5004507;28;20192;-75
2021/06/26 03:21:21;;;;;;;8.03;6.67;;;;;;;12.39;100.00;101208.78;5002798;28;20231;-76
2021/06/26 03:23:49;;;;;;;7.83;7.03;;;;;;;12.21;100.00;101211.19;5020980;28;20180;-75
2021/06/26 03:26:15;;;;;;;7.50;6.80;;;;;;;12.16;100.00;101219.38;4991490;28;20239;-74
2021/06/26 03:28:44;;;;;;;7.90;7.30;;;;;;;12.16;100.00;101219.38;5019966;28;20189;-75
2021/06/26 03:31:10;;;;;;;7.53;6.93;;;;;;;12.40;100.00;101220.53;5001725;28;20294;-74
2021/06/26 03:33:38;;;;;;;7.23;6.63;;;;;;;12.49;100.00;101216.16;4998027;28;20658;-76
2021/06/26 03:36:06;;;;;;;7.87;6.70;;;;;;;12.86;100.00;101220.31;5043349;28;20228;-76
2021/06/26 03:38:32;;;;;;;7.17;6.50;;;;;;;12.93;100.00;101221.66;5017282;28;20193;-75
2021/06/26 03:40:57;;;;;;;6.77;6.23;;;;;;;12.96;100.00;101220.28;5014155;28;20219;-76
2021/06/26 03:43:25;;;;;;;6.50;6.00;;;;;;;12.94;100.00;101223.28;4993860;28;20199;-74
2021/06/26 03:45:51;;;;;;;7.40;6.77;;;;;;;12.94;100.00;101228.75;5015950;28;20236;-75
2021/06/26 03:48:18;;;;;;;7.63;6.83;;;;;;;13.00;100.00;101222.19;5010727;28;20242;-76
2021/06/26 03:50:44;;;;;;;7.30;6.50;;;;;;;13.09;100.00;101226.00;5020863;28;20229;-76
2021/06/26 03:53:14;;;;;;;6.77;6.27;;;;;;;13.01;100.00;101223.84;5022951;28;20196;-75
2021/06/26 03:55:51;;;;;;;7.53;6.93;;;;;;;13.22;100.00;101214.53;5021403;28;20270;-75
2021/06/26 03:58:22;;;;;;;7.63;6.90;;;;;;;13.12;100.00;101225.47;5026789;28;20184;-75
2021/06/26 04:00:48;;;;;;;7.23;6.63;;;;;;;13.14;100.00;101223.28;5006903;28;20227;-75
2021/06/26 04:03:15;;;;;;;6.90;6.40;;;;;;;13.23;100.00;101232.53;5007741;28;20183;-74
2021/06/26 04:05:41;;;;;;;6.67;6.17;;;;;;;13.34;100.00;101228.69;5023886;28;20228;-75
2021/06/26 04:08:07;;;;;;;7.73;6.97;;;;;;;13.52;100.00;101232.47;5021748;28;20177;-74
2021/06/26 04:10:33;;;;;;;6.80;6.10;;;;;;;13.87;100.00;101233.16;5009292;28;20267;-75
2021/06/26 04:12:58;;;;;;;7.57;6.87;;;;;;;14.11;100.00;101230.63;4994818;28;20761;-75
2021/06/26 04:15:26;;;;;;;6.80;6.27;;;;;;;14.15;100.00;101237.16;5013278;28;20230;-74
2021/06/26 04:17:54;;;;;;;6.90;6.40;;;;;;;14.40;100.00;101224.97;5013499;28;20676;-75
2021/06/26 04:20:22;;;;;;;6.60;6.10;;;;;;;14.38;100.00;101229.91;5026826;28;20268;-73
2021/06/26 04:22:50;;;;;;;6.63;6.13;;;;;;;14.64;100.00;101234.09;5010208;28;20597;-72
2021/06/26 04:25:19;;;;;;;6.63;6.13;;;;;;;14.85;100.00;101221.91;5009160;28;20223;-74
2021/06/26 04:27:44;;;;;;;6.87;6.17;;;;;;;15.02;100.00;101228.59;4997916;28;20658;-73
2021/06/26 04:30:15;;;;;;;7.07;6.47;;;;;;;15.34;100.00;101232.41;4995400;28;20218;-74
2021/06/26 04:32:43;;;;;;;6.10;5.57;;;;;;;15.71;100.00;101229.81;4994404;28;20240;-74
2021/06/26 04:35:11;;;;;;;6.68;6.18;;;;;;;16.01;100.00;101224.78;5026099;28;20228;-75
2021/06/26 04:37:37;;;;;;;6.50;6.00;;;;;;;15.79;100.00;101230.00;4994021;28;20260;-75
2021/06/26 04:40:10;;;;;;;7.10;6.50;;;;;;;16.25;100.00;101224.47;5010067;28;20192;-75
2021/06/26 04:42:39;;;;;;;6.53;6.03;;;;;;;15.95;100.00;101235.00;5021541;28;20250;-75
2021/06/26 04:45:05;;;;;;;6.57;6.07;;;;;;;15.95;100.00;101229.53;5013975;28;20250;-73
2021/06/26 04:47:33;;;;;;;6.80;6.30;;;;;;;16.29;100.00;101235.66;5012394;28;20697;-74
2021/06/26 04:50:01;;;;;;;7.05;6.45;;;;;;;16.57;100.00;101235.53;5028521;28;20211;-75
2021/06/26 04:52:32;;;;;;;8.00;6.72;;;;;;;16.89;99.23;101235.59;4982377;28;20347;-75
2021/06/26 04:55:00;;;;;;;7.22;6.63;;;;;;;17.27;97.99;101233.28;5009987;28;20299;-74
2021/06/26 04:57:28;;;;;;;6.55;6.05;;;;;;;17.61;96.73;101229.03;5012614;28;20261;-74
2021/06/26 04:59:56;;;;;;;7.10;6.55;;;;;;;17.97;95.78;101232.72;5012417;28;20184;-73
2021/06/26 05:02:22;;;;;;;8.13;7.32;;;;;;;18.07;95.05;101232.50;5028411;28;20243;-75
2021/06/26 05:04:50;;;;;;;7.82;7.22;;;;;;;18.31;94.09;101240.22;5028556;28;20287;-75
2021/06/26 05:07:15;;;;;;;7.40;6.80;;;;;;;18.26;94.61;101243.13;5000706;28;20224;-75
2021/06/26 05:09:41;;;;;;;6.95;6.45;;;;;;;18.21;95.44;101251.47;5009390;28;20203;-75
2021/06/26 05:12:09;;;;;;;6.88;6.30;;;;;;;18.78;93.27;101242.47;4998014;28;20228;-75
2021/06/26 05:14:35;;;;;;;6.65;6.15;;;;;;;18.94;92.32;101244.53;5027798;28;20234;-76
2021/06/26 05:17:00;;;;;;;7.22;6.53;;;;;;;18.92;92.00;101247.59;5011674;28;20219;-75
2021/06/26 05:19:29;;;;;;;6.95;6.35;;;;;;;18.90;92.31;101249.84;5012398;28;20557;-74
2021/06/26 05:21:54;;;;;;;7.28;6.68;;;;;;;19.07;92.25;101250.00;4994715;28;20240;-74
2021/06/26 05:24:20;;;;;;;7.07;6.55;;;;;;;18.77;93.25;101254.59;4979343;28;20188;-75
2021/06/26 05:26:48;;;;;;;7.70;7.10;;;;;;;18.92;93.55;101255.84;4996261;28;20686;-75
2021/06/26 05:29:16;;;;;;;7.38;6.78;;;;;;;19.11;92.63;101256.50;5012574;28;20176;-75
2021/06/26 05:31:44;;;;;;;7.28;6.70;;;;;;;19.23;91.43;101256.78;5011022;28;20259;-75
2021/06/26 05:34:10;;;;;;;7.45;6.75;;;;;;;19.38;91.36;101256.38;5012882;28;20654;-75
2021/06/26 05:36:36;;;;;;;7.15;6.63;;;;;;;19.42;92.13;101240.84;4977306;28;20227;-76
2021/06/26 05:39:03;;;;;;;7.80;7.20;;;;;;;19.70;91.27;101243.88;4995478;28;20189;-75
2021/06/26 05:41:31;;;;;;;7.53;6.30;;;;;;;19.86;90.13;101245.13;5004268;28;20242;-77
2021/06/26 05:43:59;;;;;;;7.45;6.88;;;;;;;19.76;90.47;101264.69;5012624;28;20196;-76
2021/06/26 05:46:27;;;;;;;6.75;6.25;;;;;;;19.45;91.90;101249.28;4996122;28;20234;-76
2021/06/26 05:48:53;;;;;;;7.10;6.60;;;;;;;19.33;92.92;101254.56;4992902;28;20188;-74
2021/06/26 05:51:22;;;;;;;7.60;6.90;;;;;;;19.66;91.27;101248.41;4991054;28;20633;-75
2021/06/26 05:53:50;;;;;;;6.78;6.28;;;;;;;19.88;90.33;101253.88;5024409;28;20564;-76
2021/06/26 05:56:18;;;;;;;7.25;6.65;;;;;;;20.24;88.05;101260.03;5027926;28;20701;-74
2021/06/26 05:58:43;;;;;;;7.63;7.03;;;;;;;20.41;86.56;101257.28;5028517;28;20173;-75
2021/06/26 06:01:11;;;;;;;6.88;6.28;;;;;;;20.74;85.16;101254.59;5010363;28;20228;-74
2021/06/26 06:03:42;;;;;;;6.15;5.65;;;;;;;20.86;85.86;101258.34;4992104;28;20188;-75
2021/06/26 06:06:08;;;;;;;6.53;6.03;;;;;;;20.78;85.63;101257.53;5008493;28;20225;-74
2021/06/26 06:08:34;;;;;;;6.90;6.40;;;;;;;20.75;83.77;101250.72;5011359;28;20204;-75
2021/06/26 06:11:04;;;;;;;6.70;6.10;;;;;;;21.29;81.10;101248.84;5010340;28;20743;-75
2021/06/26 06:13:32;;;;;;;7.05;6.45;;;;;;;21.19;80.55;101244.81;5004744;28;20184;-74
2021/06/26 06:16:00;;;;;;;7.47;6.88;;;;;;;21.45;78.80;101247.22;4995893;28;20285;-77
2021/06/26 06:18:28;;;;;;;6.40;5.88;;;;;;;21.88;75.28;101257.00;5017081;28;20192;-74
2021/06/26 06:20:56;;;;;;;6.55;6.05;;;;;;;21.65;77.57;101257.59;5007024;28;20694;-75
2021/06/26 06:23:24;;;;;;;7.15;6.43;;;;;;;22.12;76.13;101257.19;5018496;28;20184;-75
2021/06/26 06:25:50;;;;;;;6.57;6.00;;;;;;;22.14;76.35;101252.97;4994749;28;20228;-75
2021/06/26 06:28:17;;;;;;;6.38;5.88;;;;;;;22.04;76.23;101263.59;4996285;28;20279;-76
2021/06/26 06:30:43;;;;;;;6.22;5.72;;;;;;;21.77;73.68;101264.03;5009965;28;20240;-75
2021/06/26 06:33:12;;;;;;;7.00;6.03;;;;;;;21.32;74.74;101264.00;5028335;28;20192;-75
2021/06/26 06:35:38;;;;;;;6.45;5.93;;;;;;;21.56;78.26;101259.56;5031713;28;20601;-76
2021/06/26 06:38:03;;;;;;;6.88;6.30;;;;;;;21.70;78.96;101263.75;5032121;28;20231;-74
2021/06/26 06:40:29;;;;;;;7.38;6.65;;;;;;;21.45;78.80;101272.13;5013651;28;20717;-76
2021/06/26 06:42:58;;;;;;;6.82;6.20;;;;;;;21.69;79.56;101272.38;5007828;28;20204;-75
2021/06/26 06:45:24;;;;;;;6.50;6.00;;;;;;;22.04;78.20;101269.94;4999363;28;20569;-77
2021/06/26 06:47:50;;;;;;;6.90;6.32;;;;;;;21.91;78.03;101269.38;4996574;28;20177;-74
2021/06/26 06:50:15;;;;;;;7.13;6.43;;;;;;;21.58;79.42;101271.09;5009434;28;20201;-75
2021/06/26 06:52:41;;;;;;;6.88;6.38;;;;;;;21.95;76.70;101279.44;4979562;28;20200;-73
2021/06/26 06:55:09;;;;;;;6.85;6.25;;;;;;;21.96;75.51;101283.00;5014846;28;20196;-75
2021/06/26 06:57:37;;;;;;;6.68;6.18;;;;;;;21.78;74.62;101292.53;5032711;28;20180;-74
2021/06/26 07:00:09;;;;;;;6.97;5.88;;;;;;;21.85;74.34;101282.56;5012866;28;20207;-76
2021/06/26 07:02:38;;;;;;;6.90;6.20;;;;;;;21.67;74.89;101280.19;5012530;28;20592;-74
2021/06/26 07:05:06;;;;;;;6.35;5.75;;;;;;;21.89;74.66;101288.25;4991328;28;20201;-74
2021/06/26 07:07:34;;;;;;;6.40;5.65;;;;;;;22.45;73.22;101283.91;5029079;28;20216;-74
2021/06/26 07:10:07;;;;;;;6.35;5.85;;;;;;;22.69;72.79;101286.84;4998686;28;20279;-73
2021/06/26 07:12:33;;;;;;;7.90;7.20;;;;;;;22.74;71.72;101289.44;4999713;28;20251;-74
2021/06/26 07:14:58;;;;;;;7.07;6.47;;;;;;;22.83;69.24;101285.44;4999154;28;20216;-74
2021/06/26 07:17:26;;;;;;;5.78;5.35;;;;;;;23.04;68.17;101289.88;5015417;28;20234;-74
2021/06/26 07:19:54;;;;;;;7.43;5.38;;;;;;;22.97;66.14;101289.59;5015475;28;20189;-73
2021/06/26 07:22:20;;;;;;;6.03;5.53;;;;;;;22.71;65.93;101284.56;5031503;28;20232;-73
2021/06/26 07:24:46;;;;;;;5.43;5.03;;;;;;;22.72;66.26;101288.97;5020089;28;20662;-74
2021/06/26 07:27:14;;;;;;;5.80;5.30;;;;;;;22.88;66.13;101283.31;4995582;28;20220;-75
2021/06/26 07:29:39;;;;;;;5.20;4.80;;;;;;;23.43;65.99;101287.38;5024318;28;20193;-74
2021/06/26 07:32:10;;;;;;;5.63;5.13;;;;;;;23.49;64.10;101285.19;5022331;28;20295;-75
2021/06/26 07:34:39;;;;;;;5.65;5.15;;;;;;;24.02;63.42;101283.94;5020814;28;20325;-74
2021/06/26 07:37:07;;;;;;;5.00;4.60;;;;;;;23.78;59.52;101277.56;5012019;28;20267;-74
2021/06/26 07:39:33;;;;;;;4.78;4.38;;;;;;;23.59;57.91;101286.41;5015023;28;20193;-74
2021/06/26 07:42:01;;;;;;;5.07;4.20;;;;;;;23.88;56.55;101286.22;5006616;28;20221;-74
2021/06/26 07:44:31;;;;;;;5.68;5.18;;;;;;;23.81;57.18;101288.78;5008108;28;20255;-73
2021/06/26 07:46:57;;;;;;;5.18;4.78;;;;;;;24.27;56.75;101285.63;4993722;28;20225;-74
2021/06/26 07:49:25;;;;;;;4.70;4.40;;;;;;;24.45;57.03;101276.66;5028409;28;20188;-72
2021/06/26 07:51:50;;;;;;;5.15;4.43;;;;;;;24.38;55.02;101276.47;4994915;28;20257;-73
2021/06/26 07:54:16;;;;;;;4.97;4.40;;;;;;;25.01;54.02;101268.94;5032574;28;20317;-74
2021/06/26 07:56:43;;;;;;;4.78;4.38;;;;;;;25.05;52.56;101277.38;5014194;28;20219;-74
2021/06/26 07:59:09;;;;;;;4.78;4.32;;;;;;;24.85;50.76;101275.56;4993875;28;20802;-74
2021/06/26 08:01:34;;;;;;;5.35;4.85;;;;;;;24.86;48.08;101278.00;4995552;28;20225;-74
2021/06/26 08:04:03;;;;;;;4.85;4.45;;;;;;;24.57;47.92;101285.81;5014033;28;20666;-74
2021/06/26 08:06:31;;;;;;;5.28;4.88;;;;;;;24.56;46.22;101270.31;5015686;28;20243;-72
2021/06/26 08:08:59;;;;;;;4.90;4.47;;;;;;;25.00;45.81;101272.06;5016048;28;20280;-73
2021/06/26 08:11:25;;;;;;;5.80;4.70;;;;;;;25.39;45.40;101270.06;4997628;28;20319;-74
2021/06/26 08:13:54;;;;;;;5.05;4.65;;;;;;;25.35;46.83;101273.91;5028080;28;20212;-76
2021/06/26 08:16:22;;;;;;;4.38;3.97;;;;;;;25.92;43.97;101272.34;5011587;28;20251;-74
2021/06/26 08:18:47;;;;;;;4.85;4.38;;;;;;;25.65;42.51;101273.19;5005730;28;20189;-76
2021/06/26 08:21:13;;;;;;;5.82;4.90;;;;;;;24.89;44.06;101259.78;4992163;28;20239;-72
2021/06/26 08:23:39;;;;;;;5.05;4.65;;;;;;;25.24;43.50;101268.03;5028795;28;20280;-76
2021/06/26 08:26:07;;;;;;;4.68;4.20;;;;;;;25.49;43.38;101269.53;4994174;28;20222;-75
2021/06/26 08:28:34;;;;;;;4.03;3.63;;;;;;;25.36;44.16;101265.19;5011828;28;20193;-75
2021/06/26 08:31:00;;;;;;;5.00;4.60;;;;;;;24.79;44.35;101269.44;5009586;28;20224;-75
2021/06/26 08:33:25;;;;;;;4.90;4.50;;;;;;;24.69;44.77;101268.28;5011547;28;20200;-75
2021/06/26 08:35:51;;;;;;;5.53;5.03;;;;;;;24.85;43.51;101268.06;4994639;28;20221;-74
2021/06/26 08:38:16;;;;;;;4.43;3.97;;;;;;;25.17;43.25;101273.41;4994547;28;20193;-75
2021/06/26 08:40:42;;;;;;;4.72;4.35;;;;;;;25.58;41.77;101264.66;5012005;28;20238;-75
2021/06/26 08:43:13;;;;;;;5.30;4.40;;;;;;;25.80;40.47;101264.03;5018736;28;20529;-74
2021/06/26 08:45:40;;;;;;;4.85;4.45;;;;;;;25.61;40.94;101261.16;4986265;28;20246;-74
2021/06/26 08:48:06;;;;;;;5.00;4.60;;;;;;;24.98;41.48;101266.06;5013853;28;20180;-74
2021/06/26 08:50:34;;;;;;;4.85;4.45;;;;;;;24.69;42.16;101271.91;5004127;28;20282;-76
2021/06/26 08:53:02;;;;;;;4.47;4.07;;;;;;;25.61;41.67;101267.53;5010700;28;20189;-75
2021/06/26 08:55:27;;;;;;;5.22;4.82;;;;;;;25.47;41.28;101266.28;4993707;28;20224;-74
2021/06/26 08:57:53;;;;;;;5.72;5.32;;;;;;;25.17;40.03;101267.84;5029341;28;20577;-76
2021/06/26 09:00:28;;;;;;;5.38;4.97;;;;;;;24.78;41.68;101253.94;5010505;28;20185;-75
2021/06/26 09:03:09;;;;;;;6.70;6.10;;;;;;;25.10;41.30;101249.34;5014462;28;20179;-74
2021/06/26 09:05:38;;;;;;;6.05;5.47;;;;;;;24.93;43.11;101261.56;5007516;28;20713;-74
2021/06/26 09:08:13;;;;;;;7.05;6.45;;;;;;;24.98;41.00;101263.28;5010210;28;20181;-74
2021/06/26 09:10:39;;;;;;;8.63;6.63;;;;;;;24.46;41.70;101268.00;4996715;28;20319;-73
2021/06/26 09:13:17;;;;;;;6.65;6.03;;;;;;;24.94;41.85;101254.03;5018095;28;20208;-74
2021/06/26 09:15:43;;;;;;;7.07;6.47;;;;;;;24.72;39.54;101273.97;5017486;28;20697;-73
2021/06/26 09:18:19;;;;;;;6.00;5.50;;;;;;;24.87;41.40;101267.66;5029014;28;20231;-74
2021/06/26 09:20:51;;;;;;;5.75;5.25;;;;;;;24.85;40.52;101265.28;5005641;28;20243;-74
2021/06/26 09:23:22;;;;;;;5.88;5.28;;;;;;;25.85;38.97;101261.00;4997088;28;20188;-74
2021/06/26 09:25:48;;;;;;;5.57;5.13;;;;;;;26.10;38.28;101258.47;5019058;28;20224;-74
2021/06/26 09:28:22;;;;;;;5.00;4.50;;;;;;;25.81;39.25;101266.47;5020074;28;20192;-75
2021/06/26 09:30:48;;;;;;;14.32;13.02;;;;;;;25.00;39.09;101266.50;5003205;28;20867;-74
2021/06/26 09:33:19;;;;;;;24.33;21.73;;;;;;;25.81;38.97;101257.31;5016124;28;20189;-74
2021/06/26 09:36:03;;;;;;;6.07;5.57;;;;;;;25.84;37.91;101259.38;5025141;28;20226;-75
2021/06/26 09:38:32;;;;;;;5.43;4.95;;;;;;;26.05;36.29;101249.59;5017312;28;20184;-76
2021/06/26 09:41:01;;;;;;;4.80;4.40;;;;;;;26.08;36.75;101260.00;4999814;28;20224;-75
2021/06/26 09:43:30;;;;;;;5.65;5.15;;;;;;;26.16;36.33;101257.03;5012272;28;20188;-74
2021/06/26 09:46:14;;;;;;;4.40;4.00;;;;;;;26.70;37.27;101262.38;5022304;28;20274;-75
2021/06/26 09:48:59;;;;;;;4.35;4.05;;;;;;;26.64;37.31;101257.41;5008194;28;20239;-74
2021/06/26 09:51:29;;;;;;;5.05;4.43;;;;;;;26.49;37.62;101254.69;5043312;28;20239;-76
2021/06/26 09:54:01;;;;;;;5.85;5.43;;;;;;;26.66;35.97;101259.84;4994783;28;20288;-74
2021/06/26 09:56:43;;;;;;;4.93;4.45;;;;;;;26.92;36.30;101253.31;5012848;28;20269;-75
2021/06/26 09:59:09;;;;;;;5.50;5.00;;;;;;;26.36;38.02;101253.19;4997100;28;20184;-75
2021/06/26 10:01:40;;;;;;;5.10;4.70;;;;;;;26.38;38.10;101246.06;5012693;28;20223;-75
2021/06/26 10:04:06;;;;;;;5.55;5.15;;;;;;;26.38;37.27;101242.47;4997716;28;20184;-75
2021/06/26 10:06:37;;;;;;;5.18;4.78;;;;;;;26.21;38.07;101251.22;5012150;28;20399;-75
2021/06/26 10:09:04;;;;;;;8.05;5.78;;;;;;;26.71;39.03;101252.00;5013123;28;20180;-77
2021/06/26 10:11:35;;;;;;;6.45;5.20;;;;;;;26.92;38.24;101246.91;5026200;28;20229;-76
2021/06/26 10:14:03;;;;;;;6.75;5.30;;;;;;;26.39;37.96;101236.53;4986631;28;20195;-76
2021/06/26 10:16:34;;;;;;;5.60;5.10;;;;;;;26.30;38.23;101240.69;4998148;28;20752;-74
2021/06/26 10:19:00;;;;;;;4.53;4.22;;;;;;;26.55;38.79;101239.28;4983820;28;20291;-75
2021/06/26 10:21:28;;;;;;;4.72;4.32;;;;;;;26.51;37.96;101232.81;4998007;28;20223;-74
2021/06/26 10:23:54;;;;;;;4.88;4.47;;;;;;;26.11;37.66;101240.59;5025490;28;20287;-73
2021/06/26 10:26:24;;;;;;;4.35;4.05;;;;;;;26.30;38.52;101231.50;5031733;28;20246;-75
2021/06/26 10:28:50;;;;;;;4.78;4.18;;;;;;;26.98;39.37;101229.53;4997133;28;20189;-74
2021/06/26 10:31:26;;;;;;;4.20;3.90;;;;;;;26.90;38.02;101233.31;5011832;28;20237;-73
2021/06/26 10:34:05;;;;;;;4.80;4.40;;;;;;;27.18;37.11;101237.53;5001746;28;20180;-75
2021/06/26 10:36:34;;;;;;;4.82;4.43;;;;;;;26.99;36.63;101230.31;4999665;28;20227;-78
2021/06/26 10:39:02;;;;;;;3.88;3.58;;;;;;;27.36;37.79;101232.28;5000609;28;20185;-75
2021/06/26 10:41:28;;;;;;;4.20;3.90;;;;;;;27.52;36.50;101234.63;5000819;28;20649;-76
2021/06/26 10:43:58;;;;;;;6.63;4.53;;;;;;;27.98;36.20;101237.03;5024154;28;20280;-76
2021/06/26 10:46:26;;;;;;;4.63;4.30;;;;;;;26.50;38.65;101237.59;5007696;28;20233;-74
2021/06/26 10:49:02;;;;;;;4.60;4.20;;;;;;;27.81;36.52;101233.97;5032879;28;20187;-76
2021/06/26 10:51:32;;;;;;;10.98;4.38;;;;;;;27.95;36.50;101237.00;5022504;28;20235;-78
2021/06/26 10:54:17;;;;;;;4.35;4.05;;;;;;;27.24;38.29;101238.03;4999884;28;20684;-78
2021/06/26 10:56:44;;;;;;;4.40;3.58;;;;;;;27.32;37.90;101239.78;4998644;28;20625;-75
2021/06/26 10:59:15;;;;;;;21.92;19.67;;;;;;;27.15;37.58;101234.66;5011785;28;20275;-77
2021/06/26 11:01:57;;;;;;;13.65;12.40;;;;;;;26.76;37.95;101243.34;5013042;28;20248;-76
2021/06/26 11:04:25;;;;;;;3.92;3.63;;;;;;;26.22;37.72;101240.88;4991861;28;20197;-77
2021/06/26 11:07:11;;;;;;;3.47;3.17;;;;;;;26.99;38.88;101242.28;4988595;28;20220;-77
2021/06/26 11:09:43;;;;;;;4.18;3.88;;;;;;;26.48;38.76;101237.16;5003603;28;20192;-78
2021/06/26 11:12:13;;;;;;;6.32;4.78;;;;;;;26.69;37.97;101241.22;4996890;28;20335;-76
2021/06/26 11:14:57;;;;;;;5.43;4.97;;;;;;;26.99;37.74;101236.69;5009029;28;20200;-77
2021/06/26 11:17:33;;;;;;;4.10;3.75;;;;;;;27.11;38.47;101234.56;5010799;28;20228;-77
2021/06/26 11:20:02;;;;;;;4.10;3.80;;;;;;;27.55;37.56;101233.09;5010911;28;20177;-78
2021/06/26 11:22:28;;;;;;;4.20;3.83;;;;;;;27.30;37.99;101236.53;5001573;28;20216;-77
2021/06/26 11:24:53;;;;;;;3.72;3.42;;;;;;;27.51;38.64;101233.03;5019852;28;20303;-78
2021/06/26 11:27:20;;;;;;;13.93;4.53;;;;;;;26.67;37.80;101230.81;5002977;28;20224;-77